Japan Airlines Virtual Airport Information Service

Manila Ninoy Aquino International Airport

ICAO: RPLL Country: Philippines
Latitude: 14.5086 Longitude: 121.02
Latest Arrival : SCC524 (RJFF-RPLL) Latest Departure : SCC521 (RPLL-VHHH)


WX CaptureLIVE
Data provided by noaa.gov | Fetched at 17:12:35

METAR : RPLL 041600Z 09004KT 050V140 9999 BKN023 25/19 Q1014 NOSIG RMK A2994

TAF : RPLL 041100Z 0412/0518 08010KT 9999 FEW025 BKN100 TX31/0506Z TN22/0420Z TEMPO 0412/0418 11013KT SCT025 BKN100 TEMPO 0418/0424 02009KT SCT023 SCT100


Runway Data for RPLL
Data provided by openaviationdata.com

Runway ID Mag Var Hdg Length Elevation Surface ILS Freq ILS Id ILS Slope
6 -1 61° 11196 ft 22 ft Concrete 109.1 IML 3
13 -1 135° 6568 ft 22 ft Concrete -- -- --
24 -1 241° 11196 ft 22 ft Concrete 109.9 IMA 3
31 -1 315° 6568 ft 22 ft Concrete -- -- --

Manila Ninoy Aquino International Airport, Philippines
Use only for reference purposes



Not for navigational purposes.